createdAt,value
2024-02-02T00:01:47.080Z,15.70
2024-02-02T00:04:14.995Z,15.80
2024-02-02T00:06:43.076Z,15.70
2024-02-02T00:09:11.031Z,15.80
2024-02-02T00:11:40.265Z,15.70
2024-02-02T00:14:08.574Z,15.60
2024-02-02T00:16:36.429Z,15.60
2024-02-02T00:19:04.470Z,15.60
2024-02-02T00:21:32.445Z,15.50
2024-02-02T00:24:00.345Z,15.50
2024-02-02T00:26:28.240Z,15.50
2024-02-02T00:28:57.460Z,15.50
2024-02-02T00:31:25.388Z,15.40
2024-02-02T00:33:53.418Z,15.50
2024-02-02T00:36:21.458Z,15.50
2024-02-02T00:38:49.456Z,15.40
2024-02-02T00:41:17.341Z,15.40
2024-02-02T00:43:45.205Z,15.40
2024-02-02T00:46:14.385Z,15.30
2024-02-02T00:48:42.362Z,15.30
2024-02-02T00:51:10.429Z,15.40
2024-02-02T00:53:38.340Z,15.30
2024-02-02T00:56:06.727Z,15.40
2024-02-02T00:58:35.240Z,15.60
2024-02-02T01:01:03.228Z,15.60
2024-02-02T01:03:34.763Z,15.40
2024-02-02T01:06:02.808Z,15.40
2024-02-02T01:08:31.462Z,15.30
2024-02-02T01:11:01.787Z,15.30
2024-02-02T01:13:31.414Z,15.30
2024-02-02T01:15:59.308Z,15.20
2024-02-02T01:18:27.351Z,15.20
2024-02-02T01:20:57.039Z,15.20
2024-02-02T01:23:24.963Z,15.30
2024-02-02T01:25:52.874Z,15.40
2024-02-02T01:28:20.823Z,15.30
2024-02-02T01:30:49.122Z,15.40
2024-02-02T01:33:17.255Z,15.30
2024-02-02T01:35:45.218Z,15.30
2024-02-02T01:38:14.484Z,15.20
2024-02-02T01:40:42.505Z,15.50
2024-02-02T01:43:10.427Z,15.40
2024-02-02T01:45:39.635Z,15.30
2024-02-02T01:48:10.021Z,15.20
2024-02-02T01:50:38.703Z,15.10
2024-02-02T01:53:06.610Z,15.10
2024-02-02T01:55:36.205Z,15.30
2024-02-02T01:58:04.386Z,15.20
2024-02-02T02:00:32.767Z,15.20
2024-02-02T02:03:00.926Z,15.30
2024-02-02T02:05:29.089Z,15.30
2024-02-02T02:07:57.159Z,15.30
2024-02-02T02:10:25.291Z,15.20
2024-02-02T02:12:54.485Z,15.20
2024-02-02T02:15:24.616Z,15.10
2024-02-02T02:17:53.417Z,15.00
2024-02-02T02:20:23.966Z,15.20
2024-02-02T02:22:54.540Z,15.20
2024-02-02T02:25:22.425Z,15.20
2024-02-02T02:27:50.840Z,15.40
2024-02-02T02:30:19.665Z,15.40
2024-02-02T02:32:47.616Z,15.40
2024-02-02T02:35:15.584Z,15.30
2024-02-02T02:37:44.218Z,15.20
2024-02-02T02:40:13.707Z,15.30
2024-02-02T02:42:41.588Z,15.20
2024-02-02T02:45:09.929Z,15.20
2024-02-02T02:47:47.025Z,15.30
2024-02-02T02:50:15.104Z,15.30
2024-02-02T02:52:42.916Z,15.30
2024-02-02T02:55:10.809Z,15.20
2024-02-02T02:57:40.135Z,15.30
2024-02-02T03:00:10.547Z,15.40
2024-02-02T03:02:38.540Z,15.30
2024-02-02T03:05:07.306Z,15.40
2024-02-02T03:07:35.197Z,15.30
2024-02-02T03:10:03.088Z,15.60
2024-02-02T03:12:31.370Z,15.40
2024-02-02T03:15:00.715Z,15.30
2024-02-02T03:17:28.679Z,15.30
2024-02-02T03:19:56.665Z,15.30
2024-02-02T03:22:24.570Z,15.40
2024-02-02T03:24:52.473Z,15.30
2024-02-02T03:27:21.522Z,15.40
2024-02-02T03:29:49.460Z,15.30
2024-02-02T03:32:18.781Z,15.30
2024-02-02T03:34:46.763Z,15.30
2024-02-02T03:37:14.679Z,15.40
2024-02-02T03:39:42.589Z,15.40
2024-02-02T03:42:11.460Z,15.40
2024-02-02T03:44:39.401Z,15.50
2024-02-02T03:47:07.339Z,15.50
2024-02-02T03:49:38.643Z,15.40
2024-02-02T03:52:07.053Z,15.50
2024-02-02T03:54:35.698Z,15.50
2024-02-02T03:57:03.728Z,15.50
2024-02-02T03:59:31.570Z,15.50
2024-02-02T04:01:59.554Z,15.30
2024-02-02T04:04:27.676Z,15.30
2024-02-02T04:06:57.268Z,15.30
2024-02-02T04:09:25.353Z,15.30
2024-02-02T04:11:53.342Z,15.40
2024-02-02T04:14:21.997Z,15.40
2024-02-02T04:16:49.848Z,15.30
2024-02-02T04:19:19.380Z,15.30
2024-02-02T04:21:47.397Z,15.10
2024-02-02T04:24:16.702Z,15.20
2024-02-02T04:26:44.592Z,15.20
2024-02-02T04:29:12.751Z,15.00
2024-02-02T04:31:40.618Z,15.10
2024-02-02T04:34:08.606Z,15.20
2024-02-02T04:36:36.566Z,15.20
2024-02-02T04:39:06.071Z,15.30
2024-02-02T04:41:35.650Z,15.30
2024-02-02T04:44:03.516Z,15.20
2024-02-02T04:46:31.424Z,15.20
2024-02-02T04:48:59.478Z,15.10
2024-02-02T04:51:27.552Z,15.20
2024-02-02T04:53:55.490Z,15.30
2024-02-02T04:56:23.369Z,15.20
2024-02-02T04:58:54.403Z,15.00
2024-02-02T05:01:22.269Z,14.90
2024-02-02T05:03:51.100Z,14.90
2024-02-02T05:06:19.092Z,14.90
2024-02-02T05:08:47.016Z,14.90
2024-02-02T05:11:13.953Z,15.00
2024-02-02T05:13:42.290Z,14.80
2024-02-02T05:16:13.397Z,14.90
2024-02-02T05:18:43.592Z,14.90
2024-02-02T05:21:11.796Z,14.90
2024-02-02T05:23:46.950Z,14.90
2024-02-02T05:26:17.862Z,15.00
2024-02-02T05:28:45.824Z,14.90
2024-02-02T05:31:15.112Z,15.00
2024-02-02T05:33:47.030Z,15.30
2024-02-02T05:36:15.489Z,15.20
2024-02-02T05:38:43.427Z,15.20
2024-02-02T05:41:11.235Z,15.30
2024-02-02T05:43:39.100Z,15.40
2024-02-02T05:46:07.472Z,15.40
2024-02-02T05:48:36.888Z,15.50
2024-02-02T05:51:05.097Z,15.60
2024-02-02T05:53:32.989Z,15.50
2024-02-02T05:56:00.889Z,15.60
2024-02-02T05:58:28.768Z,15.40
2024-02-02T06:00:56.893Z,15.50
2024-02-02T06:03:24.935Z,15.30
2024-02-02T06:05:54.434Z,15.30
2024-02-02T06:08:22.337Z,15.30
2024-02-02T06:10:50.260Z,15.50
2024-02-02T06:13:18.928Z,15.50
2024-02-02T06:15:47.229Z,15.80
2024-02-02T06:18:17.496Z,15.60
2024-02-02T06:20:45.700Z,15.80
2024-02-02T06:23:14.946Z,15.80
2024-02-02T06:25:42.982Z,15.80
2024-02-02T06:28:11.085Z,15.90
2024-02-02T06:30:39.081Z,15.90
2024-02-02T06:33:07.818Z,15.70
2024-02-02T06:35:35.796Z,15.70
2024-02-02T06:38:04.279Z,15.70
2024-02-02T06:40:33.697Z,15.90
2024-02-02T06:43:01.541Z,15.90
2024-02-02T06:45:29.530Z,15.60
2024-02-02T06:47:58.285Z,15.80
2024-02-02T06:50:26.178Z,15.90
2024-02-02T06:52:54.394Z,15.70
2024-02-02T06:55:22.276Z,15.50
2024-02-02T06:57:51.512Z,15.60
2024-02-02T07:00:20.242Z,15.50
2024-02-02T07:02:49.127Z,15.70
2024-02-02T07:05:17.557Z,15.50
2024-02-02T07:07:45.640Z,15.90
2024-02-02T07:10:17.036Z,15.80
2024-02-02T07:12:57.958Z,15.60
2024-02-02T07:15:28.783Z,15.60
2024-02-02T07:17:57.069Z,15.50
2024-02-02T07:21:01.595Z,15.70
2024-02-02T07:23:35.546Z,15.80
2024-02-02T07:26:06.928Z,15.50
2024-02-02T07:28:40.728Z,15.50
2024-02-02T07:31:10.183Z,15.60
2024-02-02T07:33:41.924Z,15.50
2024-02-02T07:36:14.100Z,15.40
2024-02-02T07:38:48.565Z,15.60
2024-02-02T07:41:18.262Z,15.50
2024-02-02T07:43:48.870Z,15.40
2024-02-02T07:46:17.401Z,15.50
2024-02-02T07:48:47.903Z,15.50
2024-02-02T07:51:17.598Z,15.60
2024-02-02T07:53:45.884Z,15.50
2024-02-02T07:56:14.163Z,15.70
2024-02-02T07:58:42.308Z,15.70
2024-02-02T08:01:12.177Z,15.90
2024-02-02T08:03:40.239Z,15.70
2024-02-02T08:06:08.972Z,15.80
2024-02-02T08:08:37.768Z,15.70
2024-02-02T08:11:06.085Z,15.80
2024-02-02T08:13:35.766Z,15.80
2024-02-02T08:16:03.992Z,15.90
2024-02-02T08:18:33.799Z,15.80
2024-02-02T08:21:03.219Z,16.00
2024-02-02T08:23:31.218Z,16.20
2024-02-02T08:25:59.046Z,16.10
2024-02-02T08:28:27.781Z,16.10
2024-02-02T08:30:56.524Z,15.90
2024-02-02T08:33:24.457Z,15.90
2024-02-02T08:35:53.751Z,16.20
2024-02-02T08:38:21.839Z,16.20
2024-02-02T08:40:50.882Z,16.10
2024-02-02T08:43:20.550Z,16.10
2024-02-02T08:46:07.376Z,16.10
2024-02-02T08:48:38.294Z,16.20
2024-02-02T08:51:43.970Z,15.90
2024-02-02T08:54:38.461Z,16.10
2024-02-02T08:57:31.388Z,16.30
2024-02-02T09:00:06.052Z,16.50
2024-02-02T09:03:05.597Z,16.00
2024-02-02T09:05:51.105Z,16.40
2024-02-02T09:08:40.142Z,16.10
2024-02-02T09:11:23.889Z,16.30
2024-02-02T09:14:08.613Z,16.00
2024-02-02T09:16:43.843Z,16.20
2024-02-02T09:19:28.590Z,16.60
2024-02-02T09:21:58.273Z,16.80
2024-02-02T09:24:41.806Z,16.90
2024-02-02T09:27:14.271Z,16.40
2024-02-02T09:29:46.400Z,16.10
2024-02-02T09:32:15.916Z,15.80
2024-02-02T09:34:44.344Z,15.80
2024-02-02T09:39:53.143Z,15.90
2024-02-02T09:42:45.494Z,15.40
2024-02-02T09:45:22.793Z,15.10
2024-02-02T09:48:03.550Z,15.50
2024-02-02T09:50:42.730Z,15.90
2024-02-02T09:53:37.915Z,15.80
2024-02-02T09:56:16.670Z,15.80
2024-02-02T09:58:51.131Z,15.60
2024-02-02T10:01:34.139Z,15.70
2024-02-02T10:04:18.864Z,15.60
2024-02-02T10:06:54.810Z,15.20
2024-02-02T10:09:42.693Z,15.50
2024-02-02T10:12:21.830Z,15.60
2024-02-02T10:15:18.641Z,15.90
2024-02-02T10:18:05.912Z,15.70
2024-02-02T10:20:39.699Z,15.80
2024-02-02T10:23:35.795Z,15.40
2024-02-02T10:26:31.548Z,15.50
2024-02-02T10:29:14.197Z,15.60
2024-02-02T10:32:03.884Z,15.40
2024-02-02T10:34:49.621Z,15.90
2024-02-02T10:37:33.326Z,16.20
2024-02-02T10:40:18.391Z,15.70
2024-02-02T10:43:03.625Z,15.40
2024-02-02T10:45:43.212Z,15.40
2024-02-02T10:51:02.004Z,15.60
2024-02-02T10:53:44.738Z,15.50
2024-02-02T10:56:29.154Z,15.80
2024-02-02T10:59:09.091Z,15.50
2024-02-02T11:01:51.724Z,15.40
2024-02-02T11:04:33.573Z,15.80
2024-02-02T11:07:13.677Z,15.90
2024-02-02T11:09:53.844Z,16.00
2024-02-02T11:12:48.751Z,16.00
2024-02-02T11:15:29.631Z,15.80
2024-02-02T11:18:15.297Z,15.50
2024-02-02T11:23:27.535Z,14.80
2024-02-02T11:26:04.722Z,14.90
2024-02-02T11:28:45.555Z,15.00
2024-02-02T11:31:21.142Z,15.10
2024-02-02T11:33:59.598Z,15.10
2024-02-02T11:36:42.181Z,14.80
2024-02-02T11:39:24.891Z,14.70
2024-02-02T11:41:54.019Z,14.90
2024-02-02T11:44:22.367Z,14.50
2024-02-02T11:46:53.319Z,14.60
2024-02-02T11:49:26.166Z,14.60
2024-02-02T11:52:02.875Z,14.00
2024-02-02T11:54:40.005Z,14.20
2024-02-02T11:57:13.449Z,14.60
2024-02-02T11:59:44.574Z,14.70
2024-02-02T12:02:34.454Z,14.60
2024-02-02T12:05:12.690Z,14.80
2024-02-02T12:07:52.945Z,14.70
2024-02-02T12:10:24.041Z,14.80
2024-02-02T12:12:57.236Z,14.60
2024-02-02T12:15:27.141Z,14.60
2024-02-02T12:17:56.084Z,14.80
2024-02-02T12:20:26.589Z,14.70
2024-02-02T12:22:54.737Z,14.80
2024-02-02T12:25:22.908Z,14.50
2024-02-02T12:27:50.739Z,14.40
2024-02-02T12:30:18.772Z,14.30
2024-02-02T12:32:54.608Z,14.70
2024-02-02T12:35:25.509Z,14.70
2024-02-02T12:37:53.791Z,14.90
2024-02-02T12:40:22.094Z,15.10
2024-02-02T12:42:50.260Z,15.60
2024-02-02T12:45:18.846Z,14.80
2024-02-02T12:47:48.102Z,14.00
2024-02-02T12:50:19.300Z,13.60
2024-02-02T12:52:51.592Z,13.70
2024-02-02T12:55:20.622Z,13.50
2024-02-02T12:57:48.500Z,13.40
2024-02-02T13:00:17.390Z,14.30
2024-02-02T13:02:47.715Z,14.90
2024-02-02T13:05:17.977Z,15.10
2024-02-02T13:07:49.999Z,15.40
2024-02-02T13:10:33.114Z,15.60
2024-02-02T13:13:11.858Z,15.90
2024-02-02T13:15:40.019Z,16.00
2024-02-02T13:18:17.991Z,15.90
2024-02-02T13:20:48.304Z,15.60
2024-02-02T13:23:25.916Z,15.80
2024-02-02T13:25:59.312Z,15.50
2024-02-02T13:28:27.728Z,16.00
2024-02-02T13:30:59.761Z,16.20
2024-02-02T13:33:32.032Z,16.20
2024-02-02T13:36:01.099Z,15.70
2024-02-02T13:38:32.311Z,15.70
2024-02-02T13:41:01.026Z,15.60
2024-02-02T13:43:29.705Z,15.60
2024-02-02T13:46:03.834Z,15.90
2024-02-02T13:48:37.709Z,15.70
2024-02-02T13:51:06.185Z,15.60
2024-02-02T13:53:35.524Z,15.60
2024-02-02T13:56:06.183Z,15.70
2024-02-02T13:58:41.003Z,15.50
2024-02-02T14:01:16.086Z,15.50
2024-02-02T14:03:44.232Z,15.80
2024-02-02T14:06:13.121Z,15.70
2024-02-02T14:08:43.315Z,15.70
2024-02-02T14:11:11.644Z,15.60
2024-02-02T14:16:10.288Z,18.10
2024-02-02T14:18:40.284Z,18.80
2024-02-02T14:21:12.592Z,19.20
2024-02-02T14:23:41.807Z,19.40
2024-02-02T14:26:10.128Z,19.60
2024-02-02T14:28:38.337Z,19.80
2024-02-02T14:31:06.817Z,19.80
2024-02-02T14:33:35.503Z,19.90
2024-02-02T14:36:04.657Z,19.90
2024-02-02T14:38:32.863Z,19.90
2024-02-02T14:41:02.029Z,20.00
2024-02-02T14:43:29.868Z,20.00
2024-02-02T14:45:59.245Z,20.00
2024-02-02T14:48:27.417Z,20.10
2024-02-02T14:50:55.363Z,20.10
2024-02-02T14:53:23.540Z,20.10
2024-02-02T14:55:51.366Z,20.10
2024-02-02T14:58:20.630Z,20.10
2024-02-02T15:00:49.023Z,20.20
2024-02-02T15:03:17.267Z,20.20
2024-02-02T15:05:45.236Z,20.20
2024-02-02T15:08:13.549Z,20.20
2024-02-02T15:10:42.260Z,20.20
2024-02-02T15:13:11.661Z,20.00
2024-02-02T15:15:41.043Z,19.80
2024-02-02T15:18:09.439Z,19.70
2024-02-02T15:20:37.503Z,19.80
2024-02-02T15:23:05.696Z,19.90
2024-02-02T15:25:33.574Z,20.00
2024-02-02T15:28:01.443Z,20.10
2024-02-02T15:30:29.356Z,20.00
2024-02-02T15:32:58.622Z,20.10
2024-02-02T15:35:26.623Z,20.20
2024-02-02T15:37:54.557Z,20.20
2024-02-02T15:40:22.540Z,20.20
2024-02-02T15:42:51.765Z,20.20
2024-02-02T15:45:19.905Z,19.90
2024-02-02T15:47:51.400Z,18.20
2024-02-02T15:52:49.382Z,15.90
2024-02-02T15:55:18.097Z,15.80
2024-02-02T15:57:51.562Z,15.70
2024-02-02T16:08:32.946Z,15.70
2024-02-02T16:11:00.797Z,15.60
2024-02-02T16:13:31.519Z,15.50
2024-02-02T16:15:59.718Z,15.50
2024-02-02T16:18:27.805Z,15.40
2024-02-02T16:20:57.073Z,15.30
2024-02-02T16:23:25.104Z,15.20
2024-02-02T16:25:52.970Z,15.30
2024-02-02T16:28:20.833Z,15.30
2024-02-02T16:30:48.953Z,15.40
2024-02-02T16:33:17.161Z,15.60
2024-02-02T16:35:45.068Z,15.60
2024-02-02T16:38:15.771Z,15.30
2024-02-02T16:40:43.812Z,15.20
2024-02-02T16:43:11.656Z,15.40
2024-02-02T16:45:41.150Z,15.40
2024-02-02T16:48:10.249Z,15.40
2024-02-02T16:50:38.370Z,15.40
2024-02-02T16:53:07.917Z,15.30
2024-02-02T16:55:37.074Z,15.40
2024-02-02T16:58:05.254Z,15.50
2024-02-02T17:00:33.224Z,15.60
2024-02-02T17:03:02.410Z,15.40
2024-02-02T17:05:30.381Z,15.50
2024-02-02T17:07:59.702Z,15.70
2024-02-02T17:10:27.586Z,15.70
2024-02-02T17:12:57.274Z,15.80
2024-02-02T17:15:25.222Z,15.50
2024-02-02T17:17:53.158Z,15.70
2024-02-02T17:20:25.914Z,15.80
2024-02-02T17:22:55.171Z,15.80
2024-02-02T17:25:23.073Z,15.80
2024-02-02T17:27:51.026Z,15.70
2024-02-02T17:30:22.726Z,15.90
2024-02-02T17:32:51.110Z,15.70
2024-02-02T17:35:19.040Z,15.70
2024-02-02T17:37:46.877Z,15.80
2024-02-02T17:40:15.784Z,15.70
2024-02-02T17:42:44.736Z,15.60
2024-02-02T17:45:12.695Z,15.50
2024-02-02T17:47:41.987Z,15.60
2024-02-02T17:50:10.470Z,15.60
2024-02-02T17:52:38.409Z,15.50
2024-02-02T17:55:07.166Z,15.80
2024-02-02T17:57:35.617Z,15.50
2024-02-02T18:00:05.375Z,15.40
2024-02-02T18:02:41.138Z,15.70
2024-02-02T18:05:09.501Z,15.50
2024-02-02T18:07:44.632Z,15.50
2024-02-02T18:10:16.042Z,15.50
2024-02-02T18:12:44.317Z,15.30
2024-02-02T18:15:12.308Z,15.40
2024-02-02T18:17:48.925Z,15.30
2024-02-02T18:20:17.204Z,15.30
2024-02-02T18:22:45.075Z,15.50
2024-02-02T18:25:13.000Z,15.70
2024-02-02T18:27:41.082Z,15.50
2024-02-02T18:30:10.290Z,15.40
2024-02-02T18:32:38.269Z,15.60
2024-02-02T18:35:08.516Z,15.40
2024-02-02T18:37:36.412Z,15.50
2024-02-02T18:40:04.584Z,15.50
2024-02-02T18:42:32.503Z,15.40
2024-02-02T18:45:00.330Z,15.40
2024-02-02T18:47:28.197Z,15.50
2024-02-02T18:49:56.145Z,15.30
2024-02-02T18:52:27.515Z,15.40
2024-02-02T18:54:55.391Z,15.30
2024-02-02T18:57:23.296Z,15.50
2024-02-02T18:59:51.210Z,15.60
2024-02-02T19:02:19.088Z,15.40
2024-02-02T19:04:47.135Z,15.50
2024-02-02T19:07:15.159Z,15.40
2024-02-02T19:09:44.519Z,15.40
2024-02-02T19:12:12.454Z,15.20
2024-02-02T19:14:40.346Z,15.50
2024-02-02T19:17:08.190Z,15.70
2024-02-02T19:19:36.212Z,15.70
2024-02-02T19:22:04.471Z,15.50
2024-02-02T19:24:32.386Z,15.50
2024-02-02T19:27:01.784Z,15.80
2024-02-02T19:29:29.650Z,15.80
2024-02-02T19:31:57.568Z,15.70
2024-02-02T19:34:26.094Z,15.90
2024-02-02T19:36:54.106Z,16.00
2024-02-02T19:39:22.221Z,15.80
2024-02-02T19:41:50.081Z,15.70
2024-02-02T19:44:19.321Z,15.90
2024-02-02T19:46:47.206Z,15.80
2024-02-02T19:49:15.136Z,15.80
2024-02-02T19:51:43.576Z,15.60
2024-02-02T19:54:11.695Z,15.70
2024-02-02T19:56:39.579Z,15.80
2024-02-02T19:59:07.455Z,15.90
2024-02-02T20:01:36.741Z,15.60
2024-02-02T20:04:04.774Z,15.70
2024-02-02T20:06:32.809Z,15.50
2024-02-02T20:09:00.667Z,15.80
2024-02-02T20:11:29.920Z,16.00
2024-02-02T20:13:57.777Z,15.90
2024-02-02T20:16:25.650Z,15.80
2024-02-02T20:18:54.935Z,15.80
2024-02-02T20:21:24.749Z,15.80
2024-02-02T20:23:55.440Z,15.90
2024-02-02T20:26:24.107Z,15.80
2024-02-02T20:28:52.930Z,16.00
2024-02-02T20:31:21.625Z,15.90
2024-02-02T20:33:52.494Z,16.00
2024-02-02T20:36:23.881Z,16.00
2024-02-02T20:38:52.365Z,16.10
2024-02-02T20:41:25.692Z,16.10
2024-02-02T20:43:54.797Z,15.90
2024-02-02T20:46:22.745Z,15.90
2024-02-02T20:48:50.808Z,16.00
2024-02-02T20:51:18.951Z,15.90
2024-02-02T20:53:48.175Z,15.80
2024-02-02T20:56:16.099Z,15.80
2024-02-02T20:58:43.923Z,15.80
2024-02-02T21:01:12.164Z,15.70
2024-02-02T21:03:40.327Z,15.70
2024-02-02T21:06:08.816Z,15.90
2024-02-02T21:08:36.961Z,15.80
2024-02-02T21:11:07.224Z,15.90
2024-02-02T21:13:35.253Z,15.90
2024-02-02T21:16:04.772Z,15.90
2024-02-02T21:18:32.663Z,15.90
2024-02-02T21:21:00.993Z,16.00
2024-02-02T21:23:28.840Z,16.20
2024-02-02T21:25:57.885Z,15.90
2024-02-02T21:28:27.695Z,15.80
2024-02-02T21:30:59.199Z,16.00
2024-02-02T21:33:28.110Z,16.00
2024-02-02T21:35:57.939Z,15.90
2024-02-02T21:38:25.860Z,16.00
2024-02-02T21:40:53.810Z,15.90
2024-02-02T21:43:21.702Z,16.30
2024-02-02T21:45:50.977Z,16.30
2024-02-02T21:48:19.191Z,16.00
2024-02-02T21:50:47.544Z,16.00
2024-02-02T21:53:15.547Z,16.00
2024-02-02T21:55:43.404Z,15.90
2024-02-02T21:58:11.346Z,15.90
2024-02-02T22:00:39.307Z,16.00
2024-02-02T22:03:08.601Z,16.20
2024-02-02T22:05:36.442Z,16.00
2024-02-02T22:08:04.327Z,16.10
2024-02-02T22:10:33.920Z,16.00
2024-02-02T22:13:01.972Z,16.20
2024-02-02T22:15:30.551Z,16.40
2024-02-02T22:17:58.491Z,16.30
2024-02-02T22:20:27.696Z,16.10
2024-02-02T22:22:55.607Z,16.20
2024-02-02T22:25:23.732Z,16.00
2024-02-02T22:27:52.706Z,16.00
2024-02-02T22:30:20.729Z,16.00
2024-02-02T22:32:48.709Z,16.10
2024-02-02T22:35:16.630Z,16.10
2024-02-02T22:37:45.794Z,16.00
2024-02-02T22:40:14.091Z,16.20
2024-02-02T22:42:42.094Z,16.00
2024-02-02T22:45:12.788Z,16.10
2024-02-02T22:47:40.761Z,16.10
2024-02-02T22:50:11.433Z,16.00
2024-02-02T22:52:39.659Z,15.80
2024-02-02T22:55:10.070Z,15.90
2024-02-02T22:57:37.919Z,16.00
2024-02-02T23:00:10.898Z,16.00
2024-02-02T23:02:38.821Z,16.00
2024-02-02T23:05:06.811Z,16.30
2024-02-02T23:07:34.612Z,16.20
2024-02-02T23:10:02.448Z,16.10
2024-02-02T23:12:31.802Z,16.20
2024-02-02T23:14:59.824Z,16.30
2024-02-02T23:17:27.669Z,16.20
2024-02-02T23:19:55.592Z,16.20
2024-02-02T23:22:23.472Z,16.10
2024-02-02T23:24:51.359Z,16.10
2024-02-02T23:27:19.207Z,16.40
2024-02-02T23:29:48.387Z,16.30
2024-02-02T23:32:16.237Z,16.60
2024-02-02T23:34:44.113Z,16.30
2024-02-02T23:37:12.087Z,16.20
2024-02-02T23:39:39.949Z,16.20
2024-02-02T23:42:08.264Z,16.20
2024-02-02T23:44:36.298Z,16.50
2024-02-02T23:47:05.819Z,16.20
2024-02-02T23:49:33.799Z,16.20
2024-02-02T23:52:01.716Z,16.50
2024-02-02T23:54:29.634Z,16.60
2024-02-02T23:56:57.729Z,17.00
